Time;durP1;ratioP1;P1;durP2;ratioP2;P2;SDS_P1;SDS_P2;PMS_P1;PMS_P2;Temp;Humidity;BMP_temperature;BMP_pressure;BME280_temperature;BME280_humidity;BME280_pressure;Samples;Min_cycle;Max_cycle;Signal;HPM_P1;HPM_P2
2021/09/07 00:00:59;;;;;;;11.55;8.45;;;;;;;17.48;70.42;100526.41;1084643;46;20047;-76
2021/09/07 00:02:02;;;;;;;13.50;8.60;;;;;;;17.44;70.55;100528.63;1084370;54;20038;-78
2021/09/07 00:03:06;;;;;;;11.65;8.55;;;;;;;17.49;70.24;100528.91;1085778;39;20537;-78
2021/09/07 00:04:08;;;;;;;10.40;8.80;;;;;;;17.44;70.11;100525.91;1084399;54;20043;-77
2021/09/07 00:05:14;;;;;;;11.82;8.45;;;;;;;17.46;69.95;100527.41;1084561;54;20116;-77
2021/09/07 00:06:17;;;;;;;12.15;7.70;;;;;;;17.52;69.84;100528.56;1084693;54;20043;-77
2021/09/07 00:07:22;;;;;;;11.15;8.38;;;;;;;17.49;69.91;100528.06;1084664;54;20062;-77
2021/09/07 00:08:24;;;;;;;11.52;8.10;;;;;;;17.50;69.99;100525.19;1084492;54;20069;-77
2021/09/07 00:09:29;;;;;;;10.02;8.85;;;;;;;17.52;69.77;100522.31;1084844;39;20557;-79
2021/09/07 00:10:31;;;;;;;12.55;8.43;;;;;;;17.49;69.70;100526.19;1084675;54;20629;-78
2021/09/07 00:11:43;;;;;;;13.05;8.63;;;;;;;17.52;69.68;100522.31;1084484;54;20040;-77
2021/09/07 00:12:45;;;;;;;12.13;8.77;;;;;;;17.49;69.88;100523.50;1084686;39;20513;-77
2021/09/07 00:13:49;;;;;;;11.80;8.60;;;;;;;17.53;69.75;100523.97;1084532;54;20552;-77
2021/09/07 00:14:51;;;;;;;10.40;8.00;;;;;;;17.52;69.51;100520.44;1084408;54;20030;-77
2021/09/07 00:15:59;;;;;;;10.48;8.10;;;;;;;17.51;69.71;100521.47;1084608;54;20039;-77
2021/09/07 00:17:00;;;;;;;13.10;8.57;;;;;;;17.42;70.05;100515.28;1084638;54;20042;-78
2021/09/07 00:18:06;;;;;;;11.55;8.45;;;;;;;17.43;70.05;100513.41;1084390;54;20038;-77
2021/09/07 00:19:08;;;;;;;10.90;8.57;;;;;;;17.39;70.19;100510.22;1084623;54;20428;-77
2021/09/07 00:20:14;;;;;;;9.65;7.80;;;;;;;17.37;69.90;100516.84;1084538;54;20060;-78
2021/09/07 00:21:15;;;;;;;10.15;8.00;;;;;;;17.49;69.58;100511.88;1084827;54;20058;-77
2021/09/07 00:22:20;;;;;;;9.88;8.38;;;;;;;17.41;69.94;100515.44;1084594;54;20030;-78
2021/09/07 00:23:21;;;;;;;11.70;8.93;;;;;;;17.40;69.88;100508.34;1084712;54;20039;-77
2021/09/07 00:24:26;;;;;;;11.98;8.80;;;;;;;17.36;70.27;100515.16;1084625;46;20057;-78
2021/09/07 00:25:28;;;;;;;11.55;8.38;;;;;;;17.36;70.25;100507.06;1084691;46;20049;-77
2021/09/07 00:26:36;;;;;;;12.25;8.40;;;;;;;17.30;70.51;100501.31;1084939;54;20046;-78
2021/09/07 00:27:38;;;;;;;12.20;8.40;;;;;;;17.31;70.41;100502.19;1084353;54;20046;-77
2021/09/07 00:28:42;;;;;;;11.23;8.75;;;;;;;17.31;70.10;100505.72;1084751;54;20054;-77
2021/09/07 00:29:44;;;;;;;10.05;8.02;;;;;;;17.35;70.33;100510.78;1084700;54;20042;-77
2021/09/07 00:30:48;;;;;;;11.25;8.40;;;;;;;17.29;70.26;100498.81;1085009;54;20054;-78
2021/09/07 00:31:54;;;;;;;11.38;9.40;;;;;;;17.27;70.46;100503.53;1084634;54;20042;-77
2021/09/07 00:32:58;;;;;;;11.38;9.07;;;;;;;17.26;70.54;100500.00;1084819;54;20034;-77
2021/09/07 00:34:00;;;;;;;13.48;10.07;;;;;;;17.30;70.14;100504.03;1084705;54;20567;-77
2021/09/07 00:35:04;;;;;;;12.52;9.68;;;;;;;17.34;70.04;100500.97;1084923;46;20061;-76
2021/09/07 00:36:08;;;;;;;12.27;10.18;;;;;;;17.38;70.16;100499.63;1084548;54;20054;-78
2021/09/07 00:37:10;;;;;;;13.18;10.93;;;;;;;17.43;69.90;100498.03;1084455;54;20039;-77
2021/09/07 00:38:14;;;;;;;13.50;10.88;;;;;;;17.42;69.79;100499.06;1084584;47;20065;-77
2021/09/07 00:39:16;;;;;;;12.32;9.80;;;;;;;17.40;70.11;100502.94;1084582;54;20061;-78
2021/09/07 00:40:20;;;;;;;13.35;10.05;;;;;;;17.37;69.95;100497.94;1085649;39;20456;-77
2021/09/07 00:41:22;;;;;;;13.63;10.45;;;;;;;17.33;69.93;100507.41;1084882;54;20038;-76
2021/09/07 00:42:26;;;;;;;11.80;9.05;;;;;;;17.21;70.34;100506.97;1084496;54;20035;-76
2021/09/07 00:43:29;;;;;;;12.40;9.77;;;;;;;17.15;70.59;100503.94;1084725;46;20065;-77
2021/09/07 00:44:33;;;;;;;12.60;8.98;;;;;;;17.15;70.79;100501.22;1085247;39;20635;-77
2021/09/07 00:45:39;;;;;;;11.63;8.48;;;;;;;17.08;71.06;100504.84;1084823;54;20048;-78
2021/09/07 00:46:41;;;;;;;11.35;9.20;;;;;;;17.04;70.81;100498.09;1084836;54;20038;-78
2021/09/07 00:47:49;;;;;;;12.80;9.20;;;;;;;17.03;71.09;100504.50;1084483;54;20050;-78
2021/09/07 00:48:52;;;;;;;11.30;9.18;;;;;;;16.84;71.75;100498.47;1084554;54;20038;-78
2021/09/07 00:49:56;;;;;;;11.15;8.60;;;;;;;16.78;71.86;100497.31;1085019;39;20421;-77
2021/09/07 00:51:00;;;;;;;11.70;9.13;;;;;;;16.76;71.94;100502.06;1085269;39;20456;-78
2021/09/07 00:52:06;;;;;;;11.48;8.55;;;;;;;16.74;71.86;100498.69;1085644;54;20038;-77
2021/09/07 00:53:08;;;;;;;10.23;8.10;;;;;;;16.64;72.43;100504.28;1085355;46;20038;-77
2021/09/07 00:54:12;;;;;;;12.20;8.40;;;;;;;16.73;71.90;100501.56;1084389;54;20050;-77
2021/09/07 00:55:14;;;;;;;10.05;8.30;;;;;;;16.71;71.82;100504.44;1084435;54;20062;-78
2021/09/07 00:56:18;;;;;;;12.82;9.10;;;;;;;16.74;71.90;100503.25;1084931;54;20034;-77
2021/09/07 00:57:23;;;;;;;11.68;8.27;;;;;;;16.81;71.52;100501.56;1084733;54;20038;-78
2021/09/07 00:58:32;;;;;;;12.13;8.70;;;;;;;16.85;71.31;100497.47;1084715;54;20042;-76
2021/09/07 00:59:34;;;;;;;11.40;7.97;;;;;;;16.90;70.91;100505.03;1084424;46;20038;-78
2021/09/07 01:00:38;;;;;;;9.88;7.35;;;;;;;16.93;70.67;100507.41;1083797;54;20042;-77
2021/09/07 01:01:41;;;;;;;10.95;7.65;;;;;;;16.91;70.90;100502.16;1084408;54;20065;-77
2021/09/07 01:02:45;;;;;;;10.18;8.13;;;;;;;16.89;70.91;100511.47;1084569;54;20666;-77
2021/09/07 01:03:49;;;;;;;10.57;7.97;;;;;;;16.87;71.02;100506.25;1084516;54;20046;-79
2021/09/07 01:04:53;;;;;;;11.18;7.82;;;;;;;16.85;70.93;100510.97;1084744;54;20030;-77
2021/09/07 01:05:55;;;;;;;9.73;7.63;;;;;;;16.85;71.14;100505.56;1084592;54;20057;-77
2021/09/07 01:07:00;;;;;;;9.75;7.80;;;;;;;16.90;71.01;100502.34;1084506;54;20059;-77
2021/09/07 01:08:02;;;;;;;9.95;7.82;;;;;;;16.93;70.88;100502.88;1084485;54;20061;-77
2021/09/07 01:09:09;;;;;;;10.57;7.68;;;;;;;17.06;70.37;100502.28;1084714;54;20039;-76
2021/09/07 01:10:14;;;;;;;11.18;7.43;;;;;;;17.15;70.05;100500.41;1084383;54;20038;-77
2021/09/07 01:11:18;;;;;;;8.57;6.63;;;;;;;17.24;69.77;100501.22;1084512;54;20038;-77
2021/09/07 01:12:25;;;;;;;8.98;6.55;;;;;;;17.21;69.57;100498.84;1084584;54;20038;-78
2021/09/07 01:13:26;;;;;;;7.60;6.40;;;;;;;17.30;69.30;100500.50;1084272;54;20046;-77
2021/09/07 01:14:39;;;;;;;9.00;6.20;;;;;;;17.41;69.11;100501.94;1085285;31;20657;-77
2021/09/07 01:15:44;;;;;;;9.13;6.60;;;;;;;17.25;69.39;100495.63;1084543;46;20034;-77
2021/09/07 01:16:48;;;;;;;10.18;7.03;;;;;;;17.32;69.21;100498.47;1084716;54;20603;-77
2021/09/07 01:17:50;;;;;;;9.45;6.55;;;;;;;17.34;69.24;100500.97;1084736;54;20042;-78
2021/09/07 01:18:58;;;;;;;8.40;6.60;;;;;;;17.40;69.13;100501.09;1085050;46;20038;-76
2021/09/07 01:20:00;;;;;;;9.32;6.20;;;;;;;17.46;68.81;100507.66;1084761;54;20065;-78
2021/09/07 01:21:09;;;;;;;8.10;6.57;;;;;;;17.48;68.69;100508.31;1084943;46;20109;-78
2021/09/07 01:22:13;;;;;;;8.52;6.20;;;;;;;17.55;68.79;100503.03;1084440;54;20036;-78
2021/09/07 01:23:17;;;;;;;7.78;6.18;;;;;;;17.41;68.98;100500.09;1085111;39;20411;-77
2021/09/07 01:24:22;;;;;;;9.50;7.13;;;;;;;17.28;69.65;100500.69;1084566;54;20038;-76
2021/09/07 01:25:27;;;;;;;8.65;7.20;;;;;;;17.20;69.53;100503.41;1084473;54;20540;-78
2021/09/07 01:26:29;;;;;;;10.18;8.00;;;;;;;17.17;69.87;100502.91;1084703;54;20085;-78
2021/09/07 01:27:33;;;;;;;9.60;7.38;;;;;;;17.12;70.26;100501.59;1084582;54;20026;-78
2021/09/07 01:28:39;;;;;;;11.27;7.75;;;;;;;17.05;70.34;100500.59;1084684;54;20038;-77
2021/09/07 01:29:46;;;;;;;10.20;7.80;;;;;;;17.05;70.54;100505.19;1084975;47;20058;-78
2021/09/07 01:30:48;;;;;;;11.07;8.07;;;;;;;16.98;70.64;100505.03;1086977;54;20039;-80
2021/09/07 01:32:00;;;;;;;9.73;7.82;;;;;;;16.90;71.16;100503.19;1087485;54;20038;-79
2021/09/07 01:33:10;;;;;;;10.90;8.35;;;;;;;16.88;71.44;100505.22;1087222;54;20107;-78
2021/09/07 01:34:19;;;;;;;11.55;7.63;;;;;;;16.89;71.46;100512.31;1087511;46;20077;-78
2021/09/07 01:35:24;;;;;;;13.07;8.13;;;;;;;16.87;71.18;100506.25;1086982;54;20062;-78
2021/09/07 01:36:25;;;;;;;11.48;8.07;;;;;;;16.83;71.07;100507.59;1087121;54;20119;-79
2021/09/07 01:37:30;;;;;;;9.43;7.82;;;;;;;16.81;71.43;100504.25;1087253;54;20050;-78
2021/09/07 01:38:33;;;;;;;13.40;8.15;;;;;;;16.78;71.54;100510.81;1087156;54;20038;-78
2021/09/07 01:39:40;;;;;;;12.95;8.07;;;;;;;16.79;71.76;100500.88;1087381;47;20034;-78
2021/09/07 01:40:41;;;;;;;12.52;8.68;;;;;;;16.77;71.40;100505.59;1087303;54;20045;-80
2021/09/07 01:41:46;;;;;;;11.07;8.32;;;;;;;16.80;71.35;100505.25;1087337;54;20030;-79
2021/09/07 01:42:47;;;;;;;12.05;8.20;;;;;;;16.75;71.53;100511.19;1087050;54;20042;-78
2021/09/07 01:43:53;;;;;;;10.52;8.50;;;;;;;16.73;71.65;100501.56;1087071;54;20041;-77
2021/09/07 01:44:54;;;;;;;9.98;7.72;;;;;;;16.70;71.69;100513.56;1084826;54;20107;-79
2021/09/07 01:45:58;;;;;;;10.88;8.70;;;;;;;16.64;71.83;100504.28;1085018;54;20038;-78
2021/09/07 01:47:08;;;;;;;11.55;8.90;;;;;;;16.56;72.47;100506.19;1085280;46;20047;-77
2021/09/07 01:48:12;;;;;;;11.07;8.50;;;;;;;16.53;72.43;100512.78;1084941;54;20034;-77
2021/09/07 01:49:15;;;;;;;10.05;8.30;;;;;;;16.50;72.25;100508.53;1085256;39;20504;-77
2021/09/07 01:50:19;;;;;;;11.55;8.50;;;;;;;16.54;72.09;100506.34;1084576;54;20046;-78
2021/09/07 01:51:21;;;;;;;12.60;8.55;;;;;;;16.59;71.99;100505.81;1085935;39;20436;-78
2021/09/07 01:52:25;;;;;;;10.15;8.15;;;;;;;16.63;71.86;100502.59;1084891;54;20034;-78
2021/09/07 01:53:26;;;;;;;10.90;7.90;;;;;;;16.59;71.90;100503.13;1086273;39;20476;-77
2021/09/07 01:54:31;;;;;;;11.43;9.02;;;;;;;16.57;71.82;100503.31;1084726;47;20042;-78
2021/09/07 01:55:37;;;;;;;12.25;8.80;;;;;;;16.59;71.84;100500.41;1084769;54;20046;-78
2021/09/07 01:56:40;;;;;;;11.25;8.32;;;;;;;16.55;72.02;100499.94;1084871;54;20530;-80
2021/09/07 01:57:44;;;;;;;12.70;8.40;;;;;;;16.58;71.83;100498.75;1085102;54;20042;-77
2021/09/07 01:58:48;;;;;;;10.57;8.77;;;;;;;16.56;71.90;100501.63;1084799;47;20050;-78
2021/09/07 01:59:53;;;;;;;11.25;8.65;;;;;;;16.58;71.99;100498.75;1084879;47;20050;-80
2021/09/07 02:00:54;;;;;;;10.32;8.10;;;;;;;16.53;71.94;100504.69;1084872;46;20106;-77
2021/09/07 02:01:58;;;;;;;10.55;8.43;;;;;;;16.57;71.94;100507.88;1084820;54;20090;-78
2021/09/07 02:03:01;;;;;;;10.23;8.20;;;;;;;16.51;72.10;100506.69;1084686;54;20042;-78
2021/09/07 02:04:05;;;;;;;12.20;8.52;;;;;;;16.49;72.02;100511.41;1084667;54;20608;-78
2021/09/07 02:05:08;;;;;;;11.32;8.55;;;;;;;16.56;71.84;100511.59;1084494;54;20082;-78
2021/09/07 02:06:12;;;;;;;11.70;8.63;;;;;;;16.50;71.95;100505.84;1084938;54;20061;-78
2021/09/07 02:07:15;;;;;;;10.23;8.25;;;;;;;16.48;71.92;100504.34;1084814;54;20042;-78
2021/09/07 02:08:19;;;;;;;11.27;8.98;;;;;;;16.50;72.09;100507.72;1084704;54;20031;-77
2021/09/07 02:09:22;;;;;;;12.23;8.05;;;;;;;16.53;71.96;100507.38;1084707;39;20555;-78
2021/09/07 02:10:26;;;;;;;11.23;7.60;;;;;;;16.46;72.15;100509.91;1084636;54;20544;-77
2021/09/07 02:11:32;;;;;;;10.07;8.77;;;;;;;16.26;72.80;100508.59;1084742;47;20582;-77
2021/09/07 02:12:36;;;;;;;11.77;9.13;;;;;;;16.17;72.85;100513.16;1084659;54;20062;-78
2021/09/07 02:13:37;;;;;;;12.07;8.63;;;;;;;16.12;73.31;100515.53;1084860;54;20039;-78
2021/09/07 02:14:41;;;;;;;10.77;8.38;;;;;;;16.10;73.41;100509.44;1084821;54;20047;-77
2021/09/07 02:15:43;;;;;;;11.38;9.15;;;;;;;16.15;72.89;100509.81;1084703;54;20042;-78
2021/09/07 02:16:47;;;;;;;10.32;8.52;;;;;;;16.18;73.00;100504.03;1084738;54;20057;-78
2021/09/07 02:17:49;;;;;;;10.80;8.40;;;;;;;16.21;72.80;100511.81;1084937;54;20058;-78
2021/09/07 02:18:53;;;;;;;11.95;8.52;;;;;;;16.15;73.00;100505.25;1084880;54;20037;-78
2021/09/07 02:19:55;;;;;;;12.57;9.35;;;;;;;16.05;73.12;100508.13;1084673;54;20073;-77
2021/09/07 02:20:59;;;;;;;11.30;8.15;;;;;;;16.10;73.35;100504.06;1084774;54;20049;-78
2021/09/07 02:22:00;;;;;;;12.27;8.85;;;;;;;16.03;73.17;100507.44;1085032;54;20066;-77
2021/09/07 02:23:07;;;;;;;9.90;7.93;;;;;;;16.01;73.44;100509.47;1085239;54;20038;-79
2021/09/07 02:24:09;;;;;;;11.95;9.05;;;;;;;15.97;73.45;100513.50;1084851;54;20138;-78
2021/09/07 02:25:14;;;;;;;9.95;8.20;;;;;;;15.90;73.76;100501.72;1085038;54;20057;-77
2021/09/07 02:26:19;;;;;;;12.65;8.68;;;;;;;15.92;73.93;100504.25;1084742;54;20039;-78
2021/09/07 02:27:23;;;;;;;10.85;8.90;;;;;;;15.96;73.63;100506.44;1084677;54;20065;-78
2021/09/07 02:28:28;;;;;;;12.50;8.05;;;;;;;16.00;73.22;100515.03;1084914;54;20030;-78
2021/09/07 02:29:30;;;;;;;10.45;8.68;;;;;;;16.02;73.37;100513.84;1084739;54;20042;-78
2021/09/07 02:30:34;;;;;;;11.95;8.32;;;;;;;16.09;73.01;100521.25;1084651;54;20065;-77
2021/09/07 02:31:36;;;;;;;9.73;8.27;;;;;;;16.10;73.10;100514.84;1085109;54;20043;-78
2021/09/07 02:32:40;;;;;;;8.50;7.38;;;;;;;16.12;72.73;100516.34;1085147;54;20077;-78
2021/09/07 02:33:41;;;;;;;9.50;7.32;;;;;;;16.03;72.95;100511.97;1084665;54;20042;-78
2021/09/07 02:34:46;;;;;;;10.52;8.00;;;;;;;16.03;73.26;100509.28;1084762;54;20034;-77
2021/09/07 02:35:47;;;;;;;9.63;7.68;;;;;;;16.03;73.12;100511.97;1084797;54;20031;-77
2021/09/07 02:36:51;;;;;;;9.68;8.02;;;;;;;16.06;73.19;100515.19;1085170;54;20042;-78
2021/09/07 02:37:53;;;;;;;10.27;8.30;;;;;;;16.02;73.32;100507.59;1084881;54;20042;-77
2021/09/07 02:38:57;;;;;;;10.05;8.38;;;;;;;16.05;73.01;100509.97;1084961;54;20061;-78
2021/09/07 02:39:59;;;;;;;9.82;8.43;;;;;;;16.04;72.97;100502.88;1084948;54;20065;-77
2021/09/07 02:41:03;;;;;;;9.30;8.15;;;;;;;16.04;73.24;100514.53;1085028;54;20598;-78
2021/09/07 02:42:04;;;;;;;11.57;8.02;;;;;;;15.97;73.44;100512.66;1085097;54;20039;-77
2021/09/07 02:43:11;;;;;;;11.55;8.70;;;;;;;15.95;73.51;100499.38;1084960;54;20034;-77
2021/09/07 02:44:15;;;;;;;12.77;9.10;;;;;;;15.93;73.65;100509.47;1085504;39;20467;-77
2021/09/07 02:45:17;;;;;;;10.63;8.95;;;;;;;15.85;73.84;100510.31;1084844;54;20630;-77
2021/09/07 02:46:21;;;;;;;11.63;8.80;;;;;;;15.86;73.77;100505.78;1085152;54;20034;-77
2021/09/07 02:47:23;;;;;;;9.98;8.63;;;;;;;15.77;74.08;100504.88;1084949;54;20046;-77
2021/09/07 02:48:27;;;;;;;11.13;8.90;;;;;;;15.77;74.08;100510.28;1084926;54;20059;-77
2021/09/07 02:49:28;;;;;;;11.52;9.35;;;;;;;15.78;73.71;100503.00;1084646;54;20085;-77
2021/09/07 02:50:33;;;;;;;12.38;8.43;;;;;;;15.81;73.91;100508.06;1084840;54;20094;-77
2021/09/07 02:51:34;;;;;;;11.85;8.90;;;;;;;15.84;73.69;100502.38;1085141;54;20034;-77
2021/09/07 02:52:39;;;;;;;11.30;8.93;;;;;;;15.83;73.84;100512.28;1085303;39;20408;-77
2021/09/07 02:53:41;;;;;;;10.18;7.95;;;;;;;15.93;73.19;100505.91;1102985;36;20038;-77
2021/09/07 02:54:45;;;;;;;10.95;8.13;;;;;;;15.87;73.38;100502.06;1084807;54;20070;-77
2021/09/07 02:55:47;;;;;;;13.73;9.00;;;;;;;15.88;73.13;100504.59;1085414;47;20078;-78
2021/09/07 02:56:51;;;;;;;9.88;8.00;;;;;;;15.97;72.95;100502.72;1084712;54;20042;-76
2021/09/07 02:57:52;;;;;;;10.13;7.90;;;;;;;15.99;72.88;100507.94;1085409;47;20038;-77
2021/09/07 02:58:59;;;;;;;11.55;8.15;;;;;;;15.95;73.23;100510.16;1085008;39;20484;-77
2021/09/07 03:00:01;;;;;;;9.88;8.10;;;;;;;15.94;72.94;100505.75;1084885;54;20069;-77
2021/09/07 03:01:05;;;;;;;12.13;8.13;;;;;;;16.00;72.60;100513.16;1084894;54;20039;-77
2021/09/07 03:02:07;;;;;;;11.85;9.18;;;;;;;15.91;72.98;100500.69;1084776;54;20047;-77
2021/09/07 03:03:12;;;;;;;10.00;8.68;;;;;;;15.92;73.11;100505.09;1084903;54;20042;-78
2021/09/07 03:04:13;;;;;;;11.20;7.97;;;;;;;15.88;73.36;100503.72;1084810;54;20069;-76
2021/09/07 03:05:17;;;;;;;9.98;8.43;;;;;;;15.86;73.27;100503.91;1084616;54;20043;-78
2021/09/07 03:06:19;;;;;;;11.65;8.35;;;;;;;15.81;73.46;100497.28;1084854;54;20297;-77
2021/09/07 03:07:23;;;;;;;13.82;9.32;;;;;;;15.70;74.02;100491.22;1084556;54;20094;-77
2021/09/07 03:08:24;;;;;;;11.23;9.02;;;;;;;15.64;74.03;100486.50;1084869;54;20042;-77
2021/09/07 03:09:29;;;;;;;14.02;9.77;;;;;;;15.66;74.21;100487.19;1084661;54;20041;-77
2021/09/07 03:10:33;;;;;;;12.30;9.57;;;;;;;15.68;74.01;100487.84;1085103;54;20038;-76
2021/09/07 03:11:37;;;;;;;12.82;9.10;;;;;;;15.67;73.92;100486.19;1084962;47;20132;-77
2021/09/07 03:12:41;;;;;;;10.82;8.95;;;;;;;15.67;74.17;100486.19;1085051;54;20046;-77
2021/09/07 03:13:45;;;;;;;11.13;8.48;;;;;;;15.64;73.99;100483.81;1084835;54;20050;-77
2021/09/07 03:14:50;;;;;;;14.32;9.40;;;;;;;15.65;74.09;100488.19;1084924;54;20061;-76
2021/09/07 03:15:54;;;;;;;11.40;8.90;;;;;;;15.59;74.38;100486.16;1085218;54;20038;-78
2021/09/07 03:16:55;;;;;;;10.35;8.63;;;;;;;15.57;74.34;100480.13;1084921;54;20049;-77
2021/09/07 03:18:03;;;;;;;12.15;9.25;;;;;;;15.60;74.40;100482.44;1084739;54;20039;-77
2021/09/07 03:19:04;;;;;;;14.68;9.18;;;;;;;15.58;74.35;100488.03;1084794;54;20050;-78
2021/09/07 03:20:15;;;;;;;13.70;9.10;;;;;;;15.58;74.43;100485.31;1084946;54;20030;-78
2021/09/07 03:21:17;;;;;;;11.57;9.43;;;;;;;15.58;74.30;100485.31;1085003;54;20038;-78
2021/09/07 03:22:21;;;;;;;12.00;8.45;;;;;;;15.65;74.18;100484.66;1085106;54;20049;-77
2021/09/07 03:23:23;;;;;;;12.27;8.63;;;;;;;15.64;73.85;100474.88;1084836;54;20066;-76
2021/09/07 03:24:27;;;;;;;11.45;8.68;;;;;;;15.63;73.78;100474.03;1084930;54;20038;-78
2021/09/07 03:25:29;;;;;;;9.63;7.82;;;;;;;15.65;73.84;100472.03;1084972;54;20632;-77
2021/09/07 03:26:33;;;;;;;11.20;9.23;;;;;;;15.59;73.91;100470.84;1084743;54;20026;-77
2021/09/07 03:27:34;;;;;;;12.40;8.95;;;;;;;15.54;74.10;100472.34;1084782;54;20043;-77
2021/09/07 03:28:38;;;;;;;13.05;8.45;;;;;;;15.52;74.47;100482.44;1085125;54;20580;-77
2021/09/07 03:29:40;;;;;;;12.25;8.50;;;;;;;15.51;74.55;100469.97;1085034;54;20035;-76
2021/09/07 03:30:47;;;;;;;10.85;8.75;;;;;;;15.48;74.73;100473.88;1084996;54;20046;-77
2021/09/07 05:02:07;;;;;;;13.43;10.13;;;;;;;14.62;77.00;100513.44;1085645;54;20042;-75
2021/09/07 05:03:11;;;;;;;11.60;9.88;;;;;;;14.64;76.95;100511.44;1085986;54;20027;-75
2021/09/07 05:04:13;;;;;;;14.18;9.55;;;;;;;14.63;76.76;100510.56;1085712;54;20038;-75
2021/09/07 05:05:17;;;;;;;12.10;10.02;;;;;;;14.66;77.02;100509.41;1086682;54;20046;-78
2021/09/07 05:06:18;;;;;;;15.32;9.65;;;;;;;14.66;77.12;100506.72;1087556;54;20031;-78
2021/09/07 05:07:23;;;;;;;10.95;9.18;;;;;;;14.69;76.91;100511.81;1087592;54;20030;-79
2021/09/07 05:08:24;;;;;;;13.13;9.07;;;;;;;14.75;76.66;100521.94;1087574;54;20033;-78
2021/09/07 05:09:28;;;;;;;11.85;10.32;;;;;;;14.69;77.07;100509.13;1087645;54;20034;-78
2021/09/07 05:10:30;;;;;;;13.15;9.38;;;;;;;14.76;76.86;100506.66;1087338;54;20046;-79
2021/09/07 05:11:34;;;;;;;12.73;9.10;;;;;;;14.76;76.92;100512.84;1087398;54;20026;-77
2021/09/07 05:12:35;;;;;;;11.30;9.50;;;;;;;14.79;76.73;100520.63;1087545;47;20334;-78
2021/09/07 05:13:40;;;;;;;12.25;8.98;;;;;;;14.76;76.98;100515.53;1087517;54;20087;-78
2021/09/07 05:14:43;;;;;;;13.27;9.63;;;;;;;14.81;76.64;100524.00;1087646;54;20042;-78
2021/09/07 05:15:47;;;;;;;11.07;9.30;;;;;;;14.84;76.57;100521.97;1087611;54;20059;-77
2021/09/07 05:16:48;;;;;;;11.00;9.07;;;;;;;14.84;76.49;100520.13;1089750;46;20031;-77
2021/09/07 05:17:55;;;;;;;11.85;9.45;;;;;;;14.93;76.59;100521.84;1087665;54;20078;-79
2021/09/07 05:18:57;;;;;;;12.13;9.48;;;;;;;14.96;76.07;100531.44;1087690;54;20042;-78
2021/09/07 05:20:01;;;;;;;10.15;9.02;;;;;;;14.97;76.16;100528.59;1087652;54;20035;-78
2021/09/07 05:21:03;;;;;;;10.55;8.80;;;;;;;15.03;76.09;100532.47;1087566;54;20039;-79
2021/09/07 05:22:07;;;;;;;12.00;8.88;;;;;;;15.07;75.64;100524.91;1087520;54;20058;-78
2021/09/07 05:23:09;;;;;;;10.23;8.55;;;;;;;15.12;75.59;100534.19;1087460;54;20034;-78
2021/09/07 05:24:13;;;;;;;10.32;8.43;;;;;;;15.21;75.34;100536.94;1087496;54;20030;-78
2021/09/07 05:25:14;;;;;;;10.00;8.20;;;;;;;15.25;75.24;100531.06;1087607;54;20066;-78
2021/09/07 05:26:19;;;;;;;10.82;8.18;;;;;;;15.37;75.12;100531.59;1087485;54;20042;-78
2021/09/07 05:27:20;;;;;;;10.10;8.13;;;;;;;15.47;74.73;100538.69;1087398;39;20219;-77
2021/09/07 05:28:26;;;;;;;9.60;7.90;;;;;;;15.53;74.20;100532.63;1087436;54;20577;-79
2021/09/07 05:29:28;;;;;;;9.82;6.65;;;;;;;15.61;74.28;100535.34;1087240;54;20034;-77
2021/09/07 05:30:32;;;;;;;8.43;6.45;;;;;;;15.69;73.78;100532.66;1087385;54;20031;-78
2021/09/07 05:31:34;;;;;;;9.07;7.05;;;;;;;15.74;73.81;100527.63;1087436;54;20042;-77
2021/09/07 05:32:38;;;;;;;8.30;6.90;;;;;;;15.79;73.53;100532.50;1087621;46;20034;-77
2021/09/07 05:33:45;;;;;;;8.20;7.07;;;;;;;15.84;73.16;100526.66;1087431;54;20033;-78
2021/09/07 05:34:49;;;;;;;9.15;7.05;;;;;;;15.88;73.26;100530.69;1087284;54;20034;-78
2021/09/07 05:35:53;;;;;;;12.02;8.32;;;;;;;15.83;73.36;100524.94;1087040;54;20039;-78
2021/09/07 05:36:55;;;;;;;10.38;7.68;;;;;;;15.80;73.30;100528.81;1086768;54;20045;-78
2021/09/07 05:37:59;;;;;;;10.68;8.48;;;;;;;15.71;73.69;100527.94;1087079;54;20046;-78
2021/09/07 05:39:00;;;;;;;10.82;8.57;;;;;;;15.63;73.86;100525.25;1086848;54;20046;-78
2021/09/07 05:40:05;;;;;;;12.85;8.23;;;;;;;15.70;73.65;100518.19;1086877;54;20042;-78
2021/09/07 05:41:06;;;;;;;13.25;8.63;;;;;;;15.70;73.69;100522.75;1087620;39;20403;-78
2021/09/07 05:42:10;;;;;;;10.73;8.10;;;;;;;15.72;73.76;100521.56;1087087;54;20564;-80
2021/09/07 05:43:12;;;;;;;10.25;8.38;;;;;;;15.72;73.73;100521.56;1087028;54;20039;-76
2021/09/07 05:44:17;;;;;;;8.88;7.75;;;;;;;15.73;73.47;100523.25;1086148;54;20058;-79
2021/09/07 05:45:18;;;;;;;9.32;7.45;;;;;;;15.74;73.55;100524.94;1086928;54;20030;-77
2021/09/07 05:46:22;;;;;;;10.35;8.25;;;;;;;15.79;73.48;100515.47;1087091;54;20059;-77
2021/09/07 05:47:24;;;;;;;10.73;7.55;;;;;;;15.79;73.44;100523.56;1086933;46;20061;-78
2021/09/07 05:48:28;;;;;;;9.13;7.97;;;;;;;15.79;73.74;100515.47;1087253;54;20042;-78
2021/09/07 05:49:32;;;;;;;10.77;8.57;;;;;;;15.79;73.23;100534.34;1087277;54;20034;-77
2021/09/07 05:50:36;;;;;;;10.88;8.40;;;;;;;15.73;73.66;100523.25;1086645;54;20037;-77
2021/09/07 05:51:38;;;;;;;10.82;9.07;;;;;;;15.83;73.49;100522.25;1087205;54;20042;-76
2021/09/07 05:52:42;;;;;;;12.75;7.95;;;;;;;15.87;73.36;100524.47;1087131;54;20039;-76
2021/09/07 05:53:43;;;;;;;9.95;7.97;;;;;;;15.89;73.16;100526.97;1086894;54;20058;-77
2021/09/07 05:54:48;;;;;;;13.10;8.52;;;;;;;15.88;73.27;100519.91;1086953;54;20034;-77
2021/09/07 05:55:52;;;;;;;14.10;8.63;;;;;;;15.92;72.99;100515.03;1087024;54;20042;-77
2021/09/07 05:56:54;;;;;;;10.73;8.55;;;;;;;15.93;73.30;100533.72;1087685;46;20049;-78
2021/09/07 05:57:58;;;;;;;11.75;8.18;;;;;;;15.92;73.29;100518.56;1087036;54;20046;-77
2021/09/07 05:59:00;;;;;;;13.45;8.38;;;;;;;16.01;72.96;100520.25;1086902;54;20569;-79
2021/09/07 06:00:05;;;;;;;9.85;8.25;;;;;;;16.08;72.94;100536.59;1086840;54;20034;-77
2021/09/07 06:01:09;;;;;;;8.90;7.20;;;;;;;16.11;72.65;100525.44;1087290;46;20069;-77
2021/09/07 06:02:10;;;;;;;9.70;7.93;;;;;;;16.13;72.65;100526.13;1086965;54;20038;-77
2021/09/07 06:03:15;;;;;;;8.70;7.03;;;;;;;16.12;72.71;100529.00;1086822;54;20607;-78
2021/09/07 06:04:16;;;;;;;11.15;8.02;;;;;;;16.12;72.57;100526.31;1086765;54;20042;-79
2021/09/07 06:05:23;;;;;;;9.38;7.43;;;;;;;16.09;72.75;100532.91;1086936;54;20499;-77
2021/09/07 06:06:24;;;;;;;10.25;8.40;;;;;;;16.06;72.66;100522.44;1086870;54;20038;-77
2021/09/07 06:07:29;;;;;;;12.25;8.68;;;;;;;16.14;72.72;100521.59;1086690;54;20030;-78
2021/09/07 06:08:30;;;;;;;13.68;8.43;;;;;;;16.15;72.44;100529.50;1086807;54;20041;-78
2021/09/07 06:09:34;;;;;;;10.98;8.13;;;;;;;16.25;72.33;100532.03;1087109;54;20034;-77
2021/09/07 06:10:36;;;;;;;9.68;7.07;;;;;;;16.30;71.89;100524.28;1087491;39;20433;-78
2021/09/07 06:11:40;;;;;;;8.80;7.00;;;;;;;16.34;71.73;100525.59;1087105;54;20043;-78
2021/09/07 06:12:45;;;;;;;10.35;8.07;;;;;;;16.40;71.89;100528.66;1087003;54;20042;-78
2021/09/07 06:13:46;;;;;;;12.40;8.63;;;;;;;16.42;71.84;100526.63;1087203;54;20049;-78
2021/09/07 06:14:50;;;;;;;9.02;7.50;;;;;;;16.48;71.67;100520.53;1086730;54;20066;-80
2021/09/07 06:15:52;;;;;;;10.32;6.70;;;;;;;16.52;71.29;100527.28;1086641;54;20057;-77
2021/09/07 06:16:56;;;;;;;9.38;7.05;;;;;;;16.53;71.58;100521.69;1086602;54;20038;-78
2021/09/07 06:17:58;;;;;;;9.13;7.05;;;;;;;16.57;71.23;100518.66;1086092;54;20053;-78
2021/09/07 06:19:02;;;;;;;11.55;6.60;;;;;;;16.60;71.12;100527.25;1086660;54;20043;-78
2021/09/07 06:20:07;;;;;;;9.70;6.47;;;;;;;16.65;71.10;100530.25;1088826;39;20555;-78
2021/09/07 06:21:14;;;;;;;9.18;6.88;;;;;;;16.60;71.20;100529.94;1086879;54;20038;-79
2021/09/07 06:22:16;;;;;;;12.43;7.38;;;;;;;16.56;71.34;100528.59;1087017;54;20061;-79
2021/09/07 06:23:20;;;;;;;10.40;8.10;;;;;;;16.52;71.34;100532.69;1087089;54;20045;-78
2021/09/07 06:24:21;;;;;;;11.75;7.15;;;;;;;16.51;71.60;100537.22;1086792;54;20038;-79